Time;durP1;ratioP1;P1;durP2;ratioP2;P2;SDS_P1;SDS_P2;PMS_P1;PMS_P2;Temp;Humidity;BMP_temperature;BMP_pressure;BME280_temperature;BME280_humidity;BME280_pressure;Samples;Min_cycle;Max_cycle;Signal;HPM_P1;HPM_P2
2022/03/17 00:00:57;;;;;;;0.90;0.40;;;;;;;4.47;77.24;100821.44;5000649;28;20096;-42
2022/03/17 00:03:24;;;;;;;4.20;1.83;;;;;;;4.45;76.98;100823.06;4999679;28;20092;-46
2022/03/17 00:05:51;;;;;;;3.33;0.88;;;;;;;4.46;76.91;100827.41;5001066;28;20054;-44
2022/03/17 00:08:19;;;;;;;4.72;1.50;;;;;;;4.36;76.75;100837.31;4995561;28;20536;-43
2022/03/17 00:10:45;;;;;;;6.43;1.02;;;;;;;4.32;76.69;100838.03;4996032;28;20057;-41
2022/03/17 00:13:13;;;;;;;4.78;2.83;;;;;;;4.27;76.96;100844.69;4998423;28;20069;-45
2022/03/17 00:15:40;;;;;;;7.15;1.52;;;;;;;4.25;76.19;100843.75;5001103;28;20050;-42
2022/03/17 00:18:07;;;;;;;3.55;1.42;;;;;;;4.14;76.67;100855.31;5001795;28;20062;-42
2022/03/17 00:20:34;;;;;;;5.72;1.85;;;;;;;4.17;76.86;100860.56;5000846;28;20038;-40
2022/03/17 00:23:01;;;;;;;3.58;1.45;;;;;;;4.10;76.47;100867.16;4999824;28;20046;-42
2022/03/17 00:25:29;;;;;;;3.88;2.08;;;;;;;4.08;76.86;100872.22;4994294;28;20113;-41
2022/03/17 00:27:57;;;;;;;4.32;1.30;;;;;;;4.01;76.59;100870.25;5001009;28;20058;-45
2022/03/17 00:30:24;;;;;;;2.95;2.05;;;;;;;3.97;77.07;100876.97;5007695;28;20053;-41
2022/03/17 00:32:51;;;;;;;3.47;2.05;;;;;;;3.90;77.15;100884.34;5005980;28;20054;-44
2022/03/17 00:38:08;;;;;;;4.85;0.40;;;;;;;3.82;76.37;100892.59;5001732;28;20376;-44
2022/03/17 00:40:37;;;;;;;4.90;1.30;;;;;;;3.81;76.91;100893.44;5003969;28;20092;-44
2022/03/17 00:43:05;;;;;;;3.10;1.55;;;;;;;3.76;77.08;100900.06;5007836;28;20088;-42
2022/03/17 00:45:32;;;;;;;1.65;1.55;;;;;;;3.73;77.17;100897.38;5007484;28;20085;-43
2022/03/17 00:47:58;;;;;;;4.00;2.22;;;;;;;3.70;76.96;100893.03;5032866;28;20112;-43
2022/03/17 00:50:25;;;;;;;4.80;0.90;;;;;;;3.67;76.97;100897.13;5005094;28;20457;-45
2022/03/17 00:52:53;;;;;;;3.72;1.73;;;;;;;3.61;76.87;100905.44;5002906;28;20049;-43
2022/03/17 00:55:20;;;;;;;3.92;1.92;;;;;;;3.62;76.62;100904.66;5001483;28;21905;-41
2022/03/17 00:57:48;;;;;;;4.50;2.28;;;;;;;3.62;76.64;100908.91;4996413;28;20053;-45
2022/03/17 01:00:16;;;;;;;6.03;0.47;;;;;;;3.56;76.83;100912.97;4982695;28;20059;-43
2022/03/17 01:02:44;;;;;;;6.05;1.55;;;;;;;3.52;77.85;100923.91;4985388;28;20057;-41
2022/03/17 01:05:12;;;;;;;2.47;1.85;;;;;;;3.54;77.15;100926.50;5001296;28;20082;-44
2022/03/17 01:07:39;;;;;;;6.97;1.27;;;;;;;3.52;77.12;100930.72;5006503;28;20061;-44
2022/03/17 01:10:07;;;;;;;1.40;0.50;;;;;;;3.48;77.67;100937.41;5005371;28;20529;-43
2022/03/17 01:12:34;;;;;;;3.33;1.40;;;;;;;3.45;77.34;100927.03;5032714;28;20050;-45
2022/03/17 01:15:02;;;;;;;2.25;1.65;;;;;;;3.45;78.10;100933.00;5003634;28;20050;-46
2022/03/17 01:17:29;;;;;;;3.35;1.52;;;;;;;3.43;77.73;100946.56;4999754;28;20037;-43
2022/03/17 01:19:55;;;;;;;3.42;1.90;;;;;;;3.43;77.31;100944.00;5004412;28;20495;-42
2022/03/17 01:22:23;;;;;;;5.82;2.03;;;;;;;3.45;78.28;100960.34;5001892;28;20053;-44
2022/03/17 01:24:51;;;;;;;2.30;1.67;;;;;;;3.40;78.38;100964.38;5000274;28;20057;-43
2022/03/17 01:27:20;;;;;;;3.25;1.80;;;;;;;3.43;77.65;100969.63;4997334;28;20577;-44
2022/03/17 01:29:47;;;;;;;1.38;1.27;;;;;;;3.41;78.92;100971.28;4986163;28;20046;-43
2022/03/17 01:32:14;;;;;;;2.92;1.58;;;;;;;3.37;78.07;100979.63;5006666;28;20544;-42
2022/03/17 01:34:41;;;;;;;3.78;1.75;;;;;;;3.37;78.64;100979.63;4999217;28;20052;-41
2022/03/17 01:37:07;;;;;;;5.20;2.70;;;;;;;3.37;78.35;100989.88;4995876;28;20046;-40
2022/03/17 01:39:34;;;;;;;6.28;1.65;;;;;;;3.39;78.40;100990.81;5001617;28;20065;-43
2022/03/17 01:42:04;;;;;;;5.05;2.22;;;;;;;3.38;77.58;100986.50;5001504;28;20662;-43
2022/03/17 01:44:31;;;;;;;2.28;1.77;;;;;;;3.34;77.58;100996.59;5002256;28;20049;-44
2022/03/17 01:49:45;;;;;;;0.95;0.22;;;;;;;3.35;77.69;101007.75;4997751;28;20422;-44
2022/03/17 01:52:12;;;;;;;3.63;2.13;;;;;;;3.29;78.70;101003.22;5003866;28;20086;-46
2022/03/17 01:54:40;;;;;;;2.50;2.22;;;;;;;3.31;77.63;101006.72;4999221;28;20047;-41
2022/03/17 01:57:08;;;;;;;4.78;2.03;;;;;;;3.32;77.85;101016.13;4995827;28;20796;-43
2022/03/17 01:59:37;;;;;;;3.13;1.63;;;;;;;3.26;77.33;101022.69;5003394;28;20049;-45
2022/03/17 02:02:06;;;;;;;8.65;2.03;;;;;;;3.24;77.92;101025.19;4997754;28;20057;-43
2022/03/17 02:04:35;;;;;;;1.98;1.40;;;;;;;3.25;78.14;101026.06;5001164;28;20046;-42
2022/03/17 02:07:05;;;;;;;1.50;0.68;;;;;;;3.25;77.71;101032.09;4997832;28;20046;-44
2022/03/17 02:09:32;;;;;;;;;;;;;;;3.19;77.51;101034.38;5031559;28;20054;-46
2022/03/17 02:17:23;;;;;;;3.55;1.13;;;;;;;3.17;77.88;101043.66;5043508;27;20396;-42
2022/03/17 02:19:50;;;;;;;2.10;0.70;;;;;;;3.14;76.91;101048.66;5001060;28;20080;-43
2022/03/17 02:22:19;;;;;;;2.60;0.85;;;;;;;3.13;76.50;101052.88;4989180;28;20054;-43
2022/03/17 02:27:42;;;;;;;6.63;0.68;;;;;;;3.06;76.55;101062.00;5014209;28;20101;-39
2022/03/17 02:30:10;;;;;;;4.95;1.17;;;;;;;3.06;76.55;101062.00;4984277;28;20050;-41
2022/03/17 02:32:37;;;;;;;6.57;0.98;;;;;;;3.03;77.05;101066.97;5022059;28;20058;-41
2022/03/17 02:35:09;;;;;;;4.15;1.33;;;;;;;3.01;76.13;101067.72;4989877;28;20078;-39
2022/03/17 02:37:36;;;;;;;4.82;0.93;;;;;;;2.98;76.42;101067.56;5006252;28;20096;-41
2022/03/17 02:40:06;;;;;;;5.43;1.17;;;;;;;2.94;77.05;101071.69;4975622;28;20051;-42
2022/03/17 02:42:32;;;;;;;1.80;0.82;;;;;;;2.92;76.88;101069.06;4965537;28;20058;-39
2022/03/17 02:45:00;;;;;;;3.53;0.50;;;;;;;2.91;76.49;101081.78;4963792;28;20050;-41
2022/03/17 02:47:28;;;;;;;6.32;1.17;;;;;;;2.88;76.31;101076.50;5000650;28;20097;-46
2022/03/17 02:49:55;;;;;;;3.85;1.35;;;;;;;2.84;76.38;101080.63;5003461;28;20101;-43
2022/03/17 02:52:22;;;;;;;1.77;0.43;;;;;;;2.80;77.17;101078.72;5000394;28;20368;-41
2022/03/17 02:54:50;;;;;;;3.78;0.80;;;;;;;2.79;75.90;101087.19;4966165;28;20047;-40
2022/03/17 02:57:17;;;;;;;3.00;0.55;;;;;;;2.76;76.81;101097.28;4973183;28;20055;-43
2022/03/17 02:59:44;;;;;;;4.22;0.55;;;;;;;2.74;76.12;101098.91;4963057;28;20050;-42
2022/03/17 03:02:11;;;;;;;5.88;1.00;;;;;;;2.70;76.14;101103.00;4973420;28;20054;-39
2022/03/17 03:04:38;;;;;;;2.53;0.70;;;;;;;2.67;76.52;101098.63;4967603;28;20130;-40
2022/03/17 03:07:23;;;;;;;4.03;1.05;;;;;;;2.63;76.15;101100.97;4968632;28;20046;-43
2022/03/17 03:09:51;;;;;;;2.72;0.85;;;;;;;2.60;75.99;101108.50;4974181;28;20097;-41
2022/03/17 03:12:17;;;;;;;3.92;0.93;;;;;;;2.59;76.29;101115.28;4964342;28;20487;-41
2022/03/17 03:15:02;;;;;;;3.53;0.77;;;;;;;2.55;76.34;101109.16;4966005;28;20053;-44
2022/03/17 03:17:29;;;;;;;6.80;1.33;;;;;;;2.52;76.58;101109.03;4964463;28;20051;-42
2022/03/17 03:19:56;;;;;;;4.47;0.52;;;;;;;2.48;76.97;101112.22;4961555;28;20295;-42
2022/03/17 03:22:22;;;;;;;4.85;0.80;;;;;;;2.45;75.85;101112.09;4972844;28;20050;-43
2022/03/17 03:24:49;;;;;;;4.53;0.75;;;;;;;2.41;77.01;101111.06;4966553;28;20055;-44
2022/03/17 03:27:15;;;;;;;3.50;1.15;;;;;;;2.38;75.65;101121.16;4960721;28;20055;-39
2022/03/17 03:29:42;;;;;;;10.48;1.85;;;;;;;2.38;76.67;101122.81;4953147;28;20047;-41
2022/03/17 03:32:09;;;;;;;4.28;0.77;;;;;;;2.34;76.65;101124.38;4955939;28;20047;-44
2022/03/17 03:34:36;;;;;;;4.72;0.65;;;;;;;2.31;75.64;101130.22;4956970;28;20051;-42
2022/03/17 03:37:29;;;;;;;4.18;0.85;;;;;;;2.30;76.75;101133.53;4954802;28;20109;-41
2022/03/17 03:39:52;;;;;;;5.47;1.80;;;;;;;2.27;75.76;101128.28;4977207;28;20051;-41
2022/03/17 03:42:20;;;;;;;5.22;0.65;;;;;;;2.27;76.61;101138.50;4979853;28;20059;-40
2022/03/17 03:44:47;;;;;;;2.42;0.60;;;;;;;2.23;76.65;101126.38;4955942;28;20647;-41
2022/03/17 03:47:15;;;;;;;2.72;1.20;;;;;;;2.20;76.95;101126.25;4930767;29;20103;-43
2022/03/17 03:49:42;;;;;;;6.65;0.82;;;;;;;2.18;76.37;101127.84;4946071;28;20098;-40
2022/03/17 03:52:12;;;;;;;5.55;0.75;;;;;;;2.15;75.63;101130.25;4955408;28;20055;-40
2022/03/17 03:54:40;;;;;;;4.35;1.30;;;;;;;2.14;76.60;101141.28;4954835;28;20051;-44
2022/03/17 03:57:07;;;;;;;7.13;0.98;;;;;;;2.11;76.56;101133.44;4989562;28;20055;-43
2022/03/17 03:59:34;;;;;;;6.90;0.85;;;;;;;2.10;76.47;101139.38;4948103;28;20054;-43
2022/03/17 04:02:04;;;;;;;9.07;1.30;;;;;;;2.09;76.72;101137.63;4955702;28;20055;-43
2022/03/17 04:04:34;;;;;;;4.55;0.70;;;;;;;2.07;76.73;101144.31;4957353;28;20135;-40
2022/03/17 04:07:03;;;;;;;1.65;0.70;;;;;;;2.04;76.18;101158.72;4988367;28;20582;-42
2022/03/17 04:09:34;;;;;;;6.03;1.83;;;;;;;2.00;76.47;101151.69;4957835;28;20047;-45
2022/03/17 04:12:01;;;;;;;6.50;1.85;;;;;;;1.96;75.95;101160.00;4955765;28;20047;-44
2022/03/17 04:14:28;;;;;;;4.22;1.63;;;;;;;1.93;76.34;101162.41;4954331;28;20058;-42
2022/03/17 04:16:55;;;;;;;5.85;1.38;;;;;;;1.88;76.54;101163.84;4982059;28;20150;-42
2022/03/17 04:19:21;;;;;;;4.32;1.75;;;;;;;1.85;76.38;101169.66;4959477;28;20075;-44
2022/03/17 04:21:49;;;;;;;2.83;0.75;;;;;;;1.83;76.84;101178.06;4962643;28;20101;-44
2022/03/17 04:24:16;;;;;;;5.20;1.05;;;;;;;1.78;76.15;101178.72;4954193;28;20068;-43
2022/03/17 04:26:44;;;;;;;3.75;1.30;;;;;;;1.75;76.36;101193.88;4953710;28;20051;-40
2022/03/17 04:29:12;;;;;;;6.05;0.77;;;;;;;1.73;75.67;101189.50;4953487;28;20077;-41
2022/03/17 04:31:40;;;;;;;3.85;1.40;;;;;;;1.71;75.72;101186.84;4952157;28;20110;-42
2022/03/17 04:34:08;;;;;;;4.93;1.40;;;;;;;1.69;76.10;101197.78;4959904;28;20122;-46
2022/03/17 04:36:35;;;;;;;2.67;1.05;;;;;;;1.67;76.01;101200.25;4981080;28;20118;-45
2022/03/17 04:39:04;;;;;;;3.10;1.45;;;;;;;1.62;76.25;101209.38;4955980;28;20102;-42
2022/03/17 04:41:31;;;;;;;3.33;1.15;;;;;;;1.62;76.85;101217.88;4980552;28;20046;-43
2022/03/17 04:43:58;;;;;;;4.13;1.20;;;;;;;1.58;76.67;101215.97;4980288;28;20058;-42
2022/03/17 04:46:24;;;;;;;3.70;0.65;;;;;;;1.56;76.47;101212.47;4955102;28;20369;-41
2022/03/17 04:48:51;;;;;;;2.35;0.98;;;;;;;1.55;76.94;101215.81;4950569;28;20065;-42
2022/03/17 04:51:18;;;;;;;3.95;0.70;;;;;;;1.52;77.11;101215.66;4954802;28;20109;-44
2022/03/17 04:53:45;;;;;;;3.50;0.88;;;;;;;1.49;76.12;101229.13;4951610;28;20054;-41
2022/03/17 04:56:14;;;;;;;7.43;1.70;;;;;;;1.49;76.48;101234.22;4950714;28;20695;-42
2022/03/17 04:58:42;;;;;;;3.30;1.13;;;;;;;1.43;76.83;101231.38;4958483;28;20050;-46
2022/03/17 05:01:12;;;;;;;4.38;0.98;;;;;;;1.41;76.09;101243.16;4946926;28;20080;-45
2022/03/17 05:03:40;;;;;;;1.92;0.82;;;;;;;1.37;75.81;101248.91;4951374;28;20054;-42
2022/03/17 05:06:11;;;;;;;2.45;0.60;;;;;;;1.34;77.05;101256.38;4961138;28;20062;-45
2022/03/17 05:08:39;;;;;;;4.95;0.63;;;;;;;1.32;76.14;101268.19;4974898;28;20047;-45
2022/03/17 05:11:07;;;;;;;2.00;0.75;;;;;;;1.29;76.31;101261.25;4972462;28;20547;-43
2022/03/17 05:13:34;;;;;;;2.70;0.50;;;;;;;1.26;77.01;101264.53;4952916;28;20138;-48
2022/03/17 05:16:00;;;;;;;3.13;1.50;;;;;;;1.24;76.69;101261.00;4955476;28;20110;-43
2022/03/17 05:18:27;;;;;;;2.08;0.70;;;;;;;1.22;75.87;101260.00;4951059;28;20047;-42
2022/03/17 05:20:54;;;;;;;2.92;0.73;;;;;;;1.22;76.47;101262.56;4958802;28;20047;-44
2022/03/17 05:23:21;;;;;;;5.13;0.93;;;;;;;1.20;76.01;101263.28;4947150;28;20491;-45
2022/03/17 05:25:50;;;;;;;5.53;1.02;;;;;;;1.18;76.92;101265.75;4983102;28;20051;-45
2022/03/17 05:28:17;;;;;;;1.90;1.33;;;;;;;1.15;75.95;101275.81;4951784;28;20102;-44
2022/03/17 05:30:45;;;;;;;2.22;1.02;;;;;;;1.12;76.32;101273.09;4957494;28;20082;-44
2022/03/17 05:33:12;;;;;;;3.05;1.00;;;;;;;1.12;76.65;101280.75;4985961;28;20134;-43
2022/03/17 05:35:40;;;;;;;4.07;0.73;;;;;;;1.12;76.08;101285.84;4965123;28;20055;-42
2022/03/17 05:38:07;;;;;;;4.30;0.75;;;;;;;1.09;76.05;101291.66;4979892;28;20051;-47
2022/03/17 05:40:34;;;;;;;4.38;0.60;;;;;;;1.08;77.03;101289.88;4984952;28;20052;-48
2022/03/17 05:43:06;;;;;;;2.05;0.85;;;;;;;1.08;76.28;101296.69;4952345;28;20042;-44
2022/03/17 05:45:34;;;;;;;2.33;0.75;;;;;;;1.10;76.97;101297.63;4972368;28;20109;-43
2022/03/17 05:48:03;;;;;;;6.20;1.42;;;;;;;1.09;77.12;101301.88;4950760;28;20499;-43
2022/03/17 05:50:32;;;;;;;2.13;0.60;;;;;;;1.10;76.52;101308.72;4952842;28;20498;-47
2022/03/17 05:52:59;;;;;;;4.78;1.15;;;;;;;1.11;77.10;101304.47;4952524;28;20055;-43
2022/03/17 05:55:26;;;;;;;1.40;0.70;;;;;;;1.09;76.49;101306.09;4950192;28;20055;-45
2022/03/17 05:57:54;;;;;;;5.15;1.05;;;;;;;1.11;76.11;101314.69;4954408;28;20039;-42
2022/03/17 06:00:23;;;;;;;7.47;0.98;;;;;;;1.10;76.37;101320.59;4953717;28;20122;-42
2022/03/17 06:02:51;;;;;;;4.38;0.70;;;;;;;1.10;76.84;101328.25;4982099;28;20146;-44
2022/03/17 06:05:18;;;;;;;2.50;0.95;;;;;;;1.08;77.27;101324.75;4977378;28;20059;-40
2022/03/17 06:07:47;;;;;;;1.73;0.57;;;;;;;1.07;77.16;101322.97;4948148;28;20055;-40
2022/03/17 06:10:16;;;;;;;3.58;0.95;;;;;;;1.07;77.18;101334.06;4953189;28;20082;-43
2022/03/17 06:12:44;;;;;;;2.13;0.55;;;;;;;1.07;77.15;101338.28;4983784;28;20542;-41
2022/03/17 06:15:11;;;;;;;5.13;0.73;;;;;;;1.07;77.18;101333.16;4952745;28;20055;-41
2022/03/17 06:17:42;;;;;;;6.63;1.13;;;;;;;1.07;77.34;101335.72;4955132;28;20133;-44
2022/03/17 06:20:11;;;;;;;3.80;0.70;;;;;;;1.07;77.00;101335.72;4956163;28;20424;-39
2022/03/17 06:22:40;;;;;;;2.00;1.02;;;;;;;1.08;76.56;101329.84;4978703;28;20101;-39
2022/03/17 06:25:27;;;;;;;2.17;0.60;;;;;;;1.08;76.35;101334.94;4984183;28;20050;-43
2022/03/17 06:27:54;;;;;;;6.97;1.00;;;;;;;1.09;77.26;101337.59;4979607;28;20047;-40
2022/03/17 06:30:24;;;;;;;1.55;0.40;;;;;;;1.11;77.00;101346.19;4955922;28;20082;-42
2022/03/17 06:32:50;;;;;;;5.63;0.73;;;;;;;1.12;76.00;101347.09;4986673;28;20051;-41
2022/03/17 06:35:19;;;;;;;1.88;0.77;;;;;;;1.13;77.16;101353.94;4951394;28;20611;-39
2022/03/17 06:37:47;;;;;;;6.72;0.80;;;;;;;1.15;76.15;101352.38;4953449;28;20090;-38
2022/03/17 06:40:15;;;;;;;2.97;1.52;;;;;;;1.17;76.93;101355.00;4957035;28;20060;-42
2022/03/17 06:42:42;;;;;;;13.60;2.95;;;;;;;1.20;76.37;101361.16;4961189;28;20618;-45
2022/03/17 06:45:10;;;;;;;7.50;2.75;;;;;;;1.23;76.55;101365.56;4946161;28;20055;-42
2022/03/17 06:47:37;;;;;;;5.13;2.67;;;;;;;1.25;77.29;101364.84;4953719;28;20052;-40
2022/03/17 06:50:05;;;;;;;5.72;1.48;;;;;;;1.27;76.60;101365.81;4992347;28;20047;-40
2022/03/17 06:52:32;;;;;;;3.53;0.85;;;;;;;1.32;76.20;101366.06;4950316;28;20102;-41
2022/03/17 06:54:58;;;;;;;5.25;1.25;;;;;;;1.34;77.02;101376.38;4950261;28;20050;-43
2022/03/17 06:57:25;;;;;;;4.70;1.50;;;;;;;1.38;77.26;101378.28;4981434;28;20110;-41
2022/03/17 06:59:52;;;;;;;4.75;0.77;;;;;;;1.40;77.48;101374.16;4958024;28;20046;-42
2022/03/17 07:02:19;;;;;;;4.30;1.40;;;;;;;1.45;76.25;101385.50;4951465;28;20059;-42
2022/03/17 07:04:46;;;;;;;5.97;1.02;;;;;;;1.49;77.21;101389.13;4955325;28;20051;-43
2022/03/17 07:07:13;;;;;;;6.15;1.00;;;;;;;1.53;76.10;101391.94;4989407;28;20698;-40
2022/03/17 07:09:41;;;;;;;4.38;0.98;;;;;;;1.58;76.72;101388.78;4957738;28;20106;-43
2022/03/17 07:12:09;;;;;;;4.40;1.65;;;;;;;1.63;76.32;101402.69;4962942;28;20059;-41
2022/03/17 07:14:35;;;;;;;4.47;0.80;;;;;;;1.68;76.99;101408.91;4984245;28;20047;-41
2022/03/17 07:17:02;;;;;;;4.75;1.50;;;;;;;1.73;76.27;101399.84;4958073;28;20044;-45
2022/03/17 07:19:30;;;;;;;3.63;0.90;;;;;;;1.78;77.22;101403.53;4954602;28;20461;-41
2022/03/17 07:21:57;;;;;;;3.30;0.73;;;;;;;1.84;77.18;101396.97;4954647;28;20050;-41
2022/03/17 07:24:23;;;;;;;12.77;1.20;;;;;;;1.91;76.23;101401.63;4959269;28;20051;-41
2022/03/17 07:26:50;;;;;;;6.10;1.27;;;;;;;1.99;76.06;101413.16;4960534;28;20079;-45
2022/03/17 07:29:17;;;;;;;2.20;0.60;;;;;;;2.05;76.22;101405.81;4992461;28;20105;-41
2022/03/17 07:31:44;;;;;;;4.07;0.70;;;;;;;2.15;76.64;101407.19;4955256;28;20063;-46
2022/03/17 07:34:11;;;;;;;8.15;1.48;;;;;;;2.27;77.15;101409.50;4955821;28;20046;-44
2022/03/17 07:36:40;;;;;;;4.13;1.30;;;;;;;3.01;77.88;101411.56;4953700;28;20094;-43
2022/03/17 07:39:07;;;;;;;4.80;1.25;;;;;;;4.11;76.76;101413.38;4950611;28;20059;-44
2022/03/17 07:41:33;;;;;;;3.60;1.48;;;;;;;5.30;76.17;101418.44;4946076;28;20063;-44
2022/03/17 07:44:00;;;;;;;8.60;2.55;;;;;;;6.36;74.34;101417.41;4950162;28;20051;-44
2022/03/17 07:46:27;;;;;;;7.47;1.50;;;;;;;7.34;72.11;101422.44;4952499;28;20137;-49
2022/03/17 07:48:54;;;;;;;7.03;1.30;;;;;;;8.23;69.67;101423.44;4945488;28;21546;-43
2022/03/17 07:51:21;;;;;;;4.63;1.35;;;;;;;9.02;66.56;101416.09;4950395;28;20050;-46
2022/03/17 07:53:47;;;;;;;10.10;2.83;;;;;;;9.75;65.62;101420.47;4951990;28;20123;-46
2022/03/17 07:56:17;;;;;;;9.30;2.85;;;;;;;10.41;63.92;101412.34;4949686;28;20059;-44
2022/03/17 07:58:44;;;;;;;3.25;1.13;;;;;;;10.95;62.83;101423.72;4952274;28;20051;-44
2022/03/17 08:01:11;;;;;;;11.05;3.65;;;;;;;11.35;62.06;101428.72;4952005;28;20054;-43
2022/03/17 08:03:40;;;;;;;12.70;4.05;;;;;;;11.62;60.71;101428.28;4953019;28;20109;-44
2022/03/17 08:06:07;;;;;;;5.28;1.48;;;;;;;11.73;59.96;101424.97;4955730;28;20930;-42
2022/03/17 08:08:34;;;;;;;7.10;2.60;;;;;;;11.90;60.10;101433.88;4950374;28;20047;-47
2022/03/17 08:11:01;;;;;;;5.82;1.10;;;;;;;12.16;59.72;101445.50;4951498;28;20106;-43
2022/03/17 08:13:28;;;;;;;2.17;1.17;;;;;;;12.28;58.63;101450.88;4946051;28;20054;-45
2022/03/17 08:15:55;;;;;;;4.65;1.25;;;;;;;12.65;58.07;101453.03;4958392;28;20125;-50
2022/03/17 08:18:22;;;;;;;3.67;0.95;;;;;;;13.05;57.66;101467.31;4957919;28;20089;-43
2022/03/17 08:20:48;;;;;;;4.57;1.88;;;;;;;13.70;57.31;101461.78;4951948;28;20055;-47
2022/03/17 08:23:21;;;;;;;3.85;1.42;;;;;;;14.20;54.38;101464.69;4951308;28;20475;-43
2022/03/17 08:25:49;;;;;;;2.80;0.65;;;;;;;14.57;54.37;101464.84;4952850;28;20457;-43
2022/03/17 08:28:17;;;;;;;6.93;1.85;;;;;;;15.00;54.33;101473.69;4956375;28;20047;-43
2022/03/17 08:30:46;;;;;;;7.70;2.45;;;;;;;15.33;52.97;101479.78;4951676;28;20582;-44
2022/03/17 08:33:17;;;;;;;11.43;4.90;;;;;;;15.59;52.10;101484.16;4948910;28;20067;-43
2022/03/17 08:35:45;;;;;;;7.45;3.05;;;;;;;15.71;51.83;101479.78;4991677;28;20102;-44
2022/03/17 08:38:12;;;;;;;4.95;1.05;;;;;;;15.62;50.15;101486.75;4972608;28;20145;-44
2022/03/17 08:40:40;;;;;;;6.72;1.17;;;;;;;15.57;51.22;101485.88;4953882;28;20063;-42
2022/03/17 08:43:25;;;;;;;4.63;1.38;;;;;;;15.91;51.14;101495.44;4951252;28;20177;-46
2022/03/17 08:51:28;;;;;;;4.78;1.27;;;;;;;17.02;48.96;101505.50;4985125;28;20101;-44
2022/03/17 08:53:56;;;;;;;4.90;1.63;;;;;;;17.07;47.74;101517.72;4958627;28;20497;-43
2022/03/17 08:56:23;;;;;;;2.50;1.05;;;;;;;17.29;47.38;101509.69;4962451;28;20501;-44
2022/03/17 08:58:49;;;;;;;4.97;1.45;;;;;;;17.60;45.51;101508.59;4978809;28;20063;-42
2022/03/17 09:01:17;;;;;;;4.00;0.93;;;;;;;17.94;46.81;101510.88;4952329;28;20129;-42
2022/03/17 09:03:43;;;;;;;4.25;1.20;;;;;;;18.33;45.31;101512.22;4984048;28;20062;-46
2022/03/17 09:06:12;;;;;;;2.88;1.05;;;;;;;18.43;43.81;101515.59;4951115;28;20094;-44
2022/03/17 09:08:41;;;;;;;2.33;0.73;;;;;;;18.75;43.93;101509.94;4950712;28;20046;-45
2022/03/17 09:11:08;;;;;;;;;;;;;;;19.07;43.88;101510.41;4948362;28;20452;-42
2022/03/17 09:13:35;;;;;;;3.47;0.80;;;;;;;19.64;43.30;101511.28;4960378;28;20049;-44
2022/03/17 09:16:02;;;;;;;4.18;1.77;;;;;;;20.14;42.44;101507.75;4952137;28;20435;-47
2022/03/17 09:18:28;;;;;;;3.20;0.90;;;;;;;20.51;41.93;101516.69;4953751;28;20494;-49
2022/03/17 09:20:59;;;;;;;3.58;0.82;;;;;;;20.84;40.28;101509.84;4954201;28;20050;-45
2022/03/17 09:23:29;;;;;;;3.20;1.38;;;;;;;21.20;39.33;101509.91;4951168;28;20052;-46
2022/03/17 09:25:56;;;;;;;;;;;;;;;21.24;38.98;101508.06;4956124;28;20050;-45
2022/03/17 09:28:23;;;;;;;1.98;0.63;;;;;;;21.26;38.04;101514.16;4979610;28;19922;-45
2022/03/17 09:30:51;;;;;;;2.63;0.40;;;;;;;21.41;38.54;101515.56;4959066;28;20114;-46
2022/03/17 09:33:18;;;;;;;2.65;1.13;;;;;;;21.42;37.43;101522.56;4951198;28;20436;-48
2022/03/17 09:35:44;;;;;;;4.05;1.08;;;;;;;21.67;38.21;101516.66;4957787;28;20047;-45
2022/03/17 09:38:11;;;;;;;7.18;2.20;;;;;;;21.89;38.54;101522.25;4958538;28;20109;-45
2022/03/17 09:40:38;;;;;;;5.88;1.65;;;;;;;21.79;37.61;101524.25;4965992;28;20463;-48
2022/03/17 09:45:53;;;;;;;4.50;1.35;;;;;;;22.17;37.12;101526.78;4957967;28;20078;-46
2022/03/17 09:48:23;;;;;;;3.85;1.98;;;;;;;22.32;36.00;101530.75;4993720;28;20046;-43
2022/03/17 09:50:54;;;;;;;;;;;;;;;22.46;36.33;101532.13;4950941;28;20058;-52
2022/03/17 09:53:26;;;;;;;;;;;;;;;22.62;36.12;101534.38;4952370;28;19925;-46
2022/03/17 09:55:53;;;;;;;3.03;1.15;;;;;;;22.63;36.07;101525.53;4949508;28;19922;-45
2022/03/17 09:58:20;;;;;;;4.53;1.55;;;;;;;22.66;35.99;101538.63;4953405;28;20046;-46
2022/03/17 10:00:49;;;;;;;5.18;2.58;;;;;;;22.80;35.55;101531.13;4955237;28;20102;-46
2022/03/17 10:03:18;;;;;;;6.32;2.58;;;;;;;22.65;35.24;101532.47;4952340;28;20051;-48
2022/03/17 10:05:46;;;;;;;6.03;1.88;;;;;;;22.64;36.10;101540.44;4951917;28;20146;-45
2022/03/17 10:08:20;;;;;;;3.88;2.00;;;;;;;22.89;36.08;101539.72;4987326;28;20538;-49
2022/03/17 10:10:48;;;;;;;7.80;2.45;;;;;;;22.95;34.77;101544.78;4955128;28;20054;-47
2022/03/17 10:13:19;;;;;;;2.33;1.00;;;;;;;22.81;34.42;101546.09;4955522;28;20427;-44
2022/03/17 10:16:04;;;;;;;5.97;1.45;;;;;;;22.57;34.54;101551.22;4953700;28;20101;-49
2022/03/17 10:18:36;;;;;;;4.68;1.52;;;;;;;22.36;34.92;101557.06;4953593;28;20051;-50
2022/03/17 10:23:52;;;;;;;4.45;2.08;;;;;;;22.28;35.17;101555.50;5053782;28;20410;-46
2022/03/17 10:29:20;;;;;;;3.45;0.90;;;;;;;22.32;35.02;101572.97;5003025;27;20415;-47
2022/03/17 10:32:09;;;;;;;4.18;0.80;;;;;;;22.08;35.45;101570.09;5028880;28;20048;-50
2022/03/17 10:34:55;;;;;;;2.92;0.85;;;;;;;21.69;35.67;101573.69;4999674;28;20042;-45
2022/03/17 10:37:23;;;;;;;4.43;0.90;;;;;;;21.68;36.82;101577.25;4998128;28;20055;-45
2022/03/17 10:39:53;;;;;;;3.95;1.23;;;;;;;21.50;35.69;101585.59;4998575;28;20097;-46
2022/03/17 10:42:22;;;;;;;3.13;1.55;;;;;;;21.31;35.77;101583.44;5004186;28;20054;-49
2022/03/17 10:44:51;;;;;;;3.38;0.98;;;;;;;21.23;36.98;101580.97;4998085;28;20666;-45
2022/03/17 10:47:28;;;;;;;3.70;0.80;;;;;;;21.43;36.83;101587.53;5002006;28;20088;-46
2022/03/17 10:50:03;;;;;;;2.90;0.80;;;;;;;21.12;35.93;101588.25;4995790;28;20054;-44
2022/03/17 10:52:51;;;;;;;2.28;0.80;;;;;;;20.71;36.91;101589.09;4982935;28;20054;-48
2022/03/17 10:55:21;;;;;;;6.00;0.95;;;;;;;20.37;36.94;101590.59;4994737;28;20054;-48
2022/03/17 10:57:49;;;;;;;2.65;1.00;;;;;;;19.81;37.53;101591.59;4996716;28;20042;-44
2022/03/17 11:00:20;;;;;;;1.95;0.50;;;;;;;19.57;37.95;101595.47;5001501;28;20042;-45
2022/03/17 11:02:50;;;;;;;2.38;0.70;;;;;;;19.31;38.59;101596.72;5001255;28;20053;-41
2022/03/17 11:05:18;;;;;;;3.70;1.05;;;;;;;19.13;38.85;101604.00;4991808;28;20050;-42
2022/03/17 11:07:46;;;;;;;3.45;1.10;;;;;;;18.73;39.16;101605.34;4994376;28;20054;-43
2022/03/17 11:10:15;;;;;;;1.92;0.88;;;;;;;18.34;39.09;101603.16;4997978;28;20050;-43
2022/03/17 11:12:43;;;;;;;2.20;1.10;;;;;;;18.06;40.44;101606.88;5000660;28;20046;-47
2022/03/17 11:15:10;;;;;;;4.38;1.02;;;;;;;17.57;40.63;101609.00;5000559;28;20112;-43
2022/03/17 11:17:58;;;;;;;4.35;0.63;;;;;;;17.04;41.16;101611.91;4998168;28;20491;-42
2022/03/17 11:20:26;;;;;;;3.58;1.20;;;;;;;16.77;42.18;101612.88;4997823;28;20069;-43
2022/03/17 11:23:35;;;;;;;2.95;1.13;;;;;;;16.26;42.50;101609.53;4997922;28;20042;-46
2022/03/17 11:33:59;;;;;;;4.88;0.85;;;;;;;15.80;44.66;101597.31;5015709;28;20411;-48
2022/03/17 11:36:25;;;;;;;4.03;0.95;;;;;;;15.56;44.12;101604.28;5003716;28;20091;-47
2022/03/17 11:38:55;;;;;;;2.47;1.05;;;;;;;15.40;44.60;101604.25;4974193;28;20113;-46
2022/03/17 11:41:22;;;;;;;;;;;;;;;15.10;44.78;101592.00;4979025;28;20046;-47
2022/03/17 11:46:36;;;;;;;13.30;4.63;;;;;;;15.00;45.92;101598.91;5002044;28;21139;-44
2022/03/17 11:49:25;;;;;;;12.90;4.55;;;;;;;14.79;46.42;101595.34;4977374;28;20173;-43
2022/03/17 11:54:31;;;;;;;12.65;3.78;;;;;;;14.62;46.96;101598.72;5019808;28;20411;-46
2022/03/17 11:57:00;;;;;;;4.57;1.02;;;;;;;14.50;46.65;101604.75;4975285;28;20050;-43
2022/03/17 11:59:49;;;;;;;4.63;1.30;;;;;;;14.50;47.33;101598.66;4975355;28;20054;-46
2022/03/17 12:02:17;;;;;;;6.88;0.80;;;;;;;14.46;47.45;101596.88;4974776;28;20101;-42
2022/03/17 12:04:49;;;;;;;9.75;2.78;;;;;;;14.52;47.90;101591.69;4975949;28;20051;-44
2022/03/17 12:07:18;;;;;;;8.88;2.75;;;;;;;14.57;48.11;101594.34;4974089;28;20042;-43
2022/03/17 12:09:46;;;;;;;6.57;2.00;;;;;;;14.52;48.16;101599.50;4979517;28;20126;-46
2022/03/17 12:14:56;;;;;;;4.03;0.70;;;;;;;14.38;48.16;101589.91;5032238;28;20424;-45
2022/03/17 12:17:24;;;;;;;5.72;1.25;;;;;;;14.37;48.27;101590.75;4995659;28;20065;-43
2022/03/17 12:22:44;;;;;;;6.32;3.40;;;;;;;14.25;47.60;101598.47;5040908;28;20411;-46
2022/03/17 12:30:26;;;;;;;2.97;0.90;;;;;;;14.31;48.98;101597.66;5059554;27;20408;-43